sensor_id;sensor_type;location;lat;lon;timestamp;P1;durP1;ratioP1;P2;durP2;ratioP2
84866;SDS011;75123;51.788;4.654;2024-01-30T00:00:45;18.77;;;18.67;;
84866;SDS011;75123;51.788;4.654;2024-01-30T00:03:11;18.31;;;18.29;;
84866;SDS011;75123;51.788;4.654;2024-01-30T00:05:37;18.22;;;18.15;;
84866;SDS011;75123;51.788;4.654;2024-01-30T00:08:02;18.21;;;18.21;;
84866;SDS011;75123;51.788;4.654;2024-01-30T00:10:28;18.08;;;18.08;;
84866;SDS011;75123;51.788;4.654;2024-01-30T00:12:53;17.20;;;17.20;;
84866;SDS011;75123;51.788;4.654;2024-01-30T00:15:19;16.82;;;16.82;;
84866;SDS011;75123;51.788;4.654;2024-01-30T00:17:44;17.52;;;17.52;;
84866;SDS011;75123;51.788;4.654;2024-01-30T00:20:10;17.20;;;17.20;;
84866;SDS011;75123;51.788;4.654;2024-01-30T00:22:35;17.60;;;17.60;;
84866;SDS011;75123;51.788;4.654;2024-01-30T00:25:01;17.21;;;17.21;;
84866;SDS011;75123;51.788;4.654;2024-01-30T00:27:26;17.38;;;17.38;;
84866;SDS011;75123;51.788;4.654;2024-01-30T00:29:52;17.10;;;17.10;;
84866;SDS011;75123;51.788;4.654;2024-01-30T00:32:18;16.98;;;16.98;;
84866;SDS011;75123;51.788;4.654;2024-01-30T00:34:44;16.57;;;16.57;;
84866;SDS011;75123;51.788;4.654;2024-01-30T00:37:10;17.25;;;17.25;;
84866;SDS011;75123;51.788;4.654;2024-01-30T00:39:35;17.17;;;17.17;;
84866;SDS011;75123;51.788;4.654;2024-01-30T00:42:01;16.62;;;16.62;;
84866;SDS011;75123;51.788;4.654;2024-01-30T00:44:26;16.64;;;16.64;;
84866;SDS011;75123;51.788;4.654;2024-01-30T00:46:52;15.50;;;15.50;;
84866;SDS011;75123;51.788;4.654;2024-01-30T00:49:18;16.39;;;16.39;;
84866;SDS011;75123;51.788;4.654;2024-01-30T00:51:44;16.43;;;16.43;;
84866;SDS011;75123;51.788;4.654;2024-01-30T00:54:09;15.86;;;15.86;;
84866;SDS011;75123;51.788;4.654;2024-01-30T00:56:35;16.37;;;16.36;;
84866;SDS011;75123;51.788;4.654;2024-01-30T00:59:00;15.47;;;15.47;;
84866;SDS011;75123;51.788;4.654;2024-01-30T01:01:25;16.00;;;16.00;;
84866;SDS011;75123;51.788;4.654;2024-01-30T01:03:51;15.07;;;15.06;;
84866;SDS011;75123;51.788;4.654;2024-01-30T01:06:16;15.10;;;15.10;;
84866;SDS011;75123;51.788;4.654;2024-01-30T01:08:42;16.05;;;16.05;;
84866;SDS011;75123;51.788;4.654;2024-01-30T01:11:07;15.93;;;15.93;;
84866;SDS011;75123;51.788;4.654;2024-01-30T01:13:33;15.79;;;15.79;;
84866;SDS011;75123;51.788;4.654;2024-01-30T01:15:59;15.39;;;15.39;;
84866;SDS011;75123;51.788;4.654;2024-01-30T01:18:24;14.98;;;14.98;;
84866;SDS011;75123;51.788;4.654;2024-01-30T01:20:49;15.04;;;15.03;;
84866;SDS011;75123;51.788;4.654;2024-01-30T01:23:15;15.90;;;15.90;;
84866;SDS011;75123;51.788;4.654;2024-01-30T01:25:41;16.07;;;16.07;;
84866;SDS011;75123;51.788;4.654;2024-01-30T01:28:06;14.97;;;14.97;;
84866;SDS011;75123;51.788;4.654;2024-01-30T01:30:31;15.56;;;15.56;;
84866;SDS011;75123;51.788;4.654;2024-01-30T01:32:57;15.38;;;15.38;;
84866;SDS011;75123;51.788;4.654;2024-01-30T01:35:26;15.25;;;15.25;;
84866;SDS011;75123;51.788;4.654;2024-01-30T01:37:54;15.52;;;15.52;;
84866;SDS011;75123;51.788;4.654;2024-01-30T01:40:21;14.94;;;14.93;;
84866;SDS011;75123;51.788;4.654;2024-01-30T01:42:49;15.75;;;15.75;;
84866;SDS011;75123;51.788;4.654;2024-01-30T01:45:15;15.16;;;15.16;;
84866;SDS011;75123;51.788;4.654;2024-01-30T01:47:41;15.32;;;15.32;;
84866;SDS011;75123;51.788;4.654;2024-01-30T01:50:07;15.37;;;15.37;;
84866;SDS011;75123;51.788;4.654;2024-01-30T01:52:33;15.10;;;15.10;;
84866;SDS011;75123;51.788;4.654;2024-01-30T01:54:59;15.78;;;15.77;;
84866;SDS011;75123;51.788;4.654;2024-01-30T01:57:25;15.36;;;15.36;;
84866;SDS011;75123;51.788;4.654;2024-01-30T01:59:51;14.98;;;14.98;;
84866;SDS011;75123;51.788;4.654;2024-01-30T02:02:17;15.27;;;15.27;;
84866;SDS011;75123;51.788;4.654;2024-01-30T02:04:45;15.10;;;15.10;;
84866;SDS011;75123;51.788;4.654;2024-01-30T02:07:10;15.84;;;15.84;;
84866;SDS011;75123;51.788;4.654;2024-01-30T02:09:36;15.74;;;15.74;;
84866;SDS011;75123;51.788;4.654;2024-01-30T02:12:01;15.61;;;15.61;;
84866;SDS011;75123;51.788;4.654;2024-01-30T02:14:27;16.02;;;16.02;;
84866;SDS011;75123;51.788;4.654;2024-01-30T02:16:52;16.50;;;16.50;;
84866;SDS011;75123;51.788;4.654;2024-01-30T02:19:18;16.07;;;16.07;;
84866;SDS011;75123;51.788;4.654;2024-01-30T02:21:45;16.45;;;16.45;;
84866;SDS011;75123;51.788;4.654;2024-01-30T02:24:11;16.40;;;16.40;;
84866;SDS011;75123;51.788;4.654;2024-01-30T02:26:36;15.71;;;15.71;;
84866;SDS011;75123;51.788;4.654;2024-01-30T02:29:02;15.62;;;15.62;;
84866;SDS011;75123;51.788;4.654;2024-01-30T02:31:27;15.57;;;15.56;;
84866;SDS011;75123;51.788;4.654;2024-01-30T02:33:53;16.08;;;16.08;;
84866;SDS011;75123;51.788;4.654;2024-01-30T02:36:18;15.93;;;15.93;;
84866;SDS011;75123;51.788;4.654;2024-01-30T02:38:44;16.49;;;16.49;;
84866;SDS011;75123;51.788;4.654;2024-01-30T02:41:11;15.85;;;15.85;;
84866;SDS011;75123;51.788;4.654;2024-01-30T02:43:37;15.40;;;15.35;;
84866;SDS011;75123;51.788;4.654;2024-01-30T02:46:02;15.35;;;15.35;;
84866;SDS011;75123;51.788;4.654;2024-01-30T02:48:28;15.75;;;15.75;;
84866;SDS011;75123;51.788;4.654;2024-01-30T02:50:53;15.20;;;15.20;;
84866;SDS011;75123;51.788;4.654;2024-01-30T02:53:19;15.98;;;15.97;;
84866;SDS011;75123;51.788;4.654;2024-01-30T02:55:44;15.53;;;15.53;;
84866;SDS011;75123;51.788;4.654;2024-01-30T02:58:10;15.75;;;15.75;;
84866;SDS011;75123;51.788;4.654;2024-01-30T03:00:35;15.56;;;15.56;;
84866;SDS011;75123;51.788;4.654;2024-01-30T03:03:01;16.58;;;16.58;;
84866;SDS011;75123;51.788;4.654;2024-01-30T03:05:27;16.38;;;16.38;;
84866;SDS011;75123;51.788;4.654;2024-01-30T03:07:52;15.44;;;15.44;;
84866;SDS011;75123;51.788;4.654;2024-01-30T03:10:18;16.04;;;16.04;;
84866;SDS011;75123;51.788;4.654;2024-01-30T03:12:43;14.95;;;14.95;;
84866;SDS011;75123;51.788;4.654;2024-01-30T03:15:09;15.28;;;15.28;;
84866;SDS011;75123;51.788;4.654;2024-01-30T03:17:35;15.68;;;15.68;;
84866;SDS011;75123;51.788;4.654;2024-01-30T03:20:02;15.07;;;15.07;;
84866;SDS011;75123;51.788;4.654;2024-01-30T03:22:28;15.38;;;15.38;;
84866;SDS011;75123;51.788;4.654;2024-01-30T03:24:54;15.31;;;15.31;;
84866;SDS011;75123;51.788;4.654;2024-01-30T03:27:19;15.41;;;15.41;;
84866;SDS011;75123;51.788;4.654;2024-01-30T03:29:45;15.38;;;15.38;;
84866;SDS011;75123;51.788;4.654;2024-01-30T03:32:10;15.14;;;15.14;;
84866;SDS011;75123;51.788;4.654;2024-01-30T03:34:36;15.89;;;15.89;;
84866;SDS011;75123;51.788;4.654;2024-01-30T03:37:01;15.21;;;15.21;;
84866;SDS011;75123;51.788;4.654;2024-01-30T03:39:27;15.26;;;15.26;;
84866;SDS011;75123;51.788;4.654;2024-01-30T03:41:52;15.26;;;15.24;;
84866;SDS011;75123;51.788;4.654;2024-01-30T03:44:18;15.39;;;15.39;;
84866;SDS011;75123;51.788;4.654;2024-01-30T03:46:43;15.18;;;15.17;;
84866;SDS011;75123;51.788;4.654;2024-01-30T03:49:09;14.59;;;14.59;;
84866;SDS011;75123;51.788;4.654;2024-01-30T03:51:35;14.94;;;14.93;;
84866;SDS011;75123;51.788;4.654;2024-01-30T03:54:00;15.75;;;15.75;;
84866;SDS011;75123;51.788;4.654;2024-01-30T03:56:26;15.45;;;15.43;;
84866;SDS011;75123;51.788;4.654;2024-01-30T03:58:51;14.88;;;14.81;;
84866;SDS011;75123;51.788;4.654;2024-01-30T04:01:17;15.30;;;15.29;;
84866;SDS011;75123;51.788;4.654;2024-01-30T04:03:42;14.45;;;14.45;;
84866;SDS011;75123;51.788;4.654;2024-01-30T04:06:09;14.98;;;14.98;;
84866;SDS011;75123;51.788;4.654;2024-01-30T04:08:34;15.73;;;15.73;;
84866;SDS011;75123;51.788;4.654;2024-01-30T04:11:04;15.68;;;15.68;;
84866;SDS011;75123;51.788;4.654;2024-01-30T04:13:33;15.13;;;15.13;;
84866;SDS011;75123;51.788;4.654;2024-01-30T04:15:59;15.31;;;15.31;;
84866;SDS011;75123;51.788;4.654;2024-01-30T04:18:28;14.95;;;14.95;;
84866;SDS011;75123;51.788;4.654;2024-01-30T04:20:54;15.10;;;15.10;;
84866;SDS011;75123;51.788;4.654;2024-01-30T04:23:19;15.17;;;15.17;;
84866;SDS011;75123;51.788;4.654;2024-01-30T04:25:45;15.28;;;15.28;;
84866;SDS011;75123;51.788;4.654;2024-01-30T04:28:10;15.23;;;15.23;;
84866;SDS011;75123;51.788;4.654;2024-01-30T04:30:38;14.53;;;14.53;;
84866;SDS011;75123;51.788;4.654;2024-01-30T04:33:04;14.20;;;14.20;;
84866;SDS011;75123;51.788;4.654;2024-01-30T04:35:30;14.00;;;14.00;;
84866;SDS011;75123;51.788;4.654;2024-01-30T04:37:55;13.97;;;13.97;;
84866;SDS011;75123;51.788;4.654;2024-01-30T04:40:21;13.96;;;13.96;;
84866;SDS011;75123;51.788;4.654;2024-01-30T04:42:46;13.63;;;13.63;;
84866;SDS011;75123;51.788;4.654;2024-01-30T04:45:12;14.36;;;14.36;;
84866;SDS011;75123;51.788;4.654;2024-01-30T04:47:37;13.99;;;13.99;;
84866;SDS011;75123;51.788;4.654;2024-01-30T04:50:04;14.10;;;14.10;;
84866;SDS011;75123;51.788;4.654;2024-01-30T04:52:31;14.39;;;14.39;;
84866;SDS011;75123;51.788;4.654;2024-01-30T04:54:57;13.90;;;13.90;;
84866;SDS011;75123;51.788;4.654;2024-01-30T04:57:22;13.93;;;13.93;;
84866;SDS011;75123;51.788;4.654;2024-01-30T04:59:48;13.81;;;13.81;;
84866;SDS011;75123;51.788;4.654;2024-01-30T05:02:13;13.88;;;13.88;;
84866;SDS011;75123;51.788;4.654;2024-01-30T05:04:40;13.99;;;13.99;;
84866;SDS011;75123;51.788;4.654;2024-01-30T05:07:06;12.95;;;12.95;;
84866;SDS011;75123;51.788;4.654;2024-01-30T05:09:31;13.86;;;13.86;;
84866;SDS011;75123;51.788;4.654;2024-01-30T05:11:57;13.68;;;13.68;;
84866;SDS011;75123;51.788;4.654;2024-01-30T05:14:23;13.59;;;13.59;;
84866;SDS011;75123;51.788;4.654;2024-01-30T05:16:49;13.14;;;13.14;;
84866;SDS011;75123;51.788;4.654;2024-01-30T05:19:14;13.68;;;13.68;;
84866;SDS011;75123;51.788;4.654;2024-01-30T05:21:40;14.09;;;14.09;;
84866;SDS011;75123;51.788;4.654;2024-01-30T05:24:06;13.83;;;13.83;;
84866;SDS011;75123;51.788;4.654;2024-01-30T05:26:34;14.01;;;14.01;;
84866;SDS011;75123;51.788;4.654;2024-01-30T05:29:00;13.64;;;13.64;;
84866;SDS011;75123;51.788;4.654;2024-01-30T05:31:25;13.61;;;13.61;;
84866;SDS011;75123;51.788;4.654;2024-01-30T05:33:52;13.09;;;13.09;;
84866;SDS011;75123;51.788;4.654;2024-01-30T05:36:17;13.22;;;13.22;;
84866;SDS011;75123;51.788;4.654;2024-01-30T05:38:43;13.02;;;13.02;;
84866;SDS011;75123;51.788;4.654;2024-01-30T05:41:08;13.99;;;13.99;;
84866;SDS011;75123;51.788;4.654;2024-01-30T05:43:34;14.49;;;14.49;;
84866;SDS011;75123;51.788;4.654;2024-01-30T05:46:00;13.57;;;13.57;;
84866;SDS011;75123;51.788;4.654;2024-01-30T05:48:25;13.29;;;13.29;;
84866;SDS011;75123;51.788;4.654;2024-01-30T05:50:51;13.80;;;13.80;;
84866;SDS011;75123;51.788;4.654;2024-01-30T05:53:16;13.39;;;13.39;;
84866;SDS011;75123;51.788;4.654;2024-01-30T05:55:42;14.19;;;14.19;;
84866;SDS011;75123;51.788;4.654;2024-01-30T05:58:07;13.77;;;13.77;;
84866;SDS011;75123;51.788;4.654;2024-01-30T06:00:33;12.72;;;12.72;;
84866;SDS011;75123;51.788;4.654;2024-01-30T06:02:58;13.33;;;13.33;;
84866;SDS011;75123;51.788;4.654;2024-01-30T06:05:24;14.54;;;14.54;;
84866;SDS011;75123;51.788;4.654;2024-01-30T06:07:49;13.97;;;13.97;;
84866;SDS011;75123;51.788;4.654;2024-01-30T06:10:15;13.95;;;13.95;;
84866;SDS011;75123;51.788;4.654;2024-01-30T06:12:40;13.42;;;13.42;;
84866;SDS011;75123;51.788;4.654;2024-01-30T06:15:06;13.94;;;13.94;;
84866;SDS011;75123;51.788;4.654;2024-01-30T06:17:32;14.00;;;14.00;;
84866;SDS011;75123;51.788;4.654;2024-01-30T06:19:57;13.51;;;13.51;;
84866;SDS011;75123;51.788;4.654;2024-01-30T06:22:23;14.12;;;14.12;;
84866;SDS011;75123;51.788;4.654;2024-01-30T06:24:48;12.91;;;12.91;;
84866;SDS011;75123;51.788;4.654;2024-01-30T06:27:14;13.78;;;13.78;;
84866;SDS011;75123;51.788;4.654;2024-01-30T06:29:40;13.75;;;13.75;;
84866;SDS011;75123;51.788;4.654;2024-01-30T06:32:08;12.84;;;12.84;;
84866;SDS011;75123;51.788;4.654;2024-01-30T06:34:33;12.98;;;12.97;;
84866;SDS011;75123;51.788;4.654;2024-01-30T06:36:58;13.17;;;13.17;;
84866;SDS011;75123;51.788;4.654;2024-01-30T06:39:24;13.89;;;13.89;;
84866;SDS011;75123;51.788;4.654;2024-01-30T06:41:50;13.77;;;13.77;;
84866;SDS011;75123;51.788;4.654;2024-01-30T06:44:15;13.38;;;13.38;;
84866;SDS011;75123;51.788;4.654;2024-01-30T06:46:41;14.01;;;14.01;;
84866;SDS011;75123;51.788;4.654;2024-01-30T06:49:06;13.58;;;13.58;;
84866;SDS011;75123;51.788;4.654;2024-01-30T06:51:32;12.96;;;12.96;;
84866;SDS011;75123;51.788;4.654;2024-01-30T06:53:57;13.19;;;13.19;;
84866;SDS011;75123;51.788;4.654;2024-01-30T06:56:23;13.37;;;13.37;;
84866;SDS011;75123;51.788;4.654;2024-01-30T06:58:49;13.97;;;13.97;;
84866;SDS011;75123;51.788;4.654;2024-01-30T07:01:16;13.02;;;13.02;;
84866;SDS011;75123;51.788;4.654;2024-01-30T07:03:42;13.41;;;13.41;;
84866;SDS011;75123;51.788;4.654;2024-01-30T07:06:08;13.55;;;13.55;;
84866;SDS011;75123;51.788;4.654;2024-01-30T07:08:34;13.19;;;13.19;;
84866;SDS011;75123;51.788;4.654;2024-01-30T07:10:59;13.54;;;13.54;;
84866;SDS011;75123;51.788;4.654;2024-01-30T07:13:25;13.20;;;13.20;;
84866;SDS011;75123;51.788;4.654;2024-01-30T07:15:50;12.79;;;12.79;;
84866;SDS011;75123;51.788;4.654;2024-01-30T07:18:16;12.13;;;12.13;;
84866;SDS011;75123;51.788;4.654;2024-01-30T07:20:41;13.60;;;13.60;;
84866;SDS011;75123;51.788;4.654;2024-01-30T07:23:11;13.97;;;13.97;;
84866;SDS011;75123;51.788;4.654;2024-01-30T07:25:39;13.61;;;13.61;;
84866;SDS011;75123;51.788;4.654;2024-01-30T07:28:06;14.12;;;14.12;;
84866;SDS011;75123;51.788;4.654;2024-01-30T07:30:36;13.77;;;13.77;;
84866;SDS011;75123;51.788;4.654;2024-01-30T07:33:02;14.06;;;14.06;;
84866;SDS011;75123;51.788;4.654;2024-01-30T07:35:27;13.91;;;13.91;;
84866;SDS011;75123;51.788;4.654;2024-01-30T07:37:53;13.75;;;13.74;;
84866;SDS011;75123;51.788;4.654;2024-01-30T07:40:18;13.24;;;13.24;;
84866;SDS011;75123;51.788;4.654;2024-01-30T07:42:44;13.65;;;13.65;;
84866;SDS011;75123;51.788;4.654;2024-01-30T07:45:09;13.85;;;13.85;;
84866;SDS011;75123;51.788;4.654;2024-01-30T07:47:35;13.95;;;13.95;;
84866;SDS011;75123;51.788;4.654;2024-01-30T07:50:00;14.17;;;14.17;;
84866;SDS011;75123;51.788;4.654;2024-01-30T07:52:26;14.35;;;14.34;;
84866;SDS011;75123;51.788;4.654;2024-01-30T07:54:51;14.71;;;14.71;;
84866;SDS011;75123;51.788;4.654;2024-01-30T07:57:17;13.97;;;13.97;;
84866;SDS011;75123;51.788;4.654;2024-01-30T07:59:43;13.85;;;13.85;;
84866;SDS011;75123;51.788;4.654;2024-01-30T08:02:09;13.29;;;13.29;;
84866;SDS011;75123;51.788;4.654;2024-01-30T08:04:35;13.27;;;13.27;;
84866;SDS011;75123;51.788;4.654;2024-01-30T08:07:01;13.61;;;13.61;;
84866;SDS011;75123;51.788;4.654;2024-01-30T08:09:26;13.49;;;13.49;;
84866;SDS011;75123;51.788;4.654;2024-01-30T08:11:52;12.35;;;12.35;;
84866;SDS011;75123;51.788;4.654;2024-01-30T08:14:18;13.06;;;13.06;;
84866;SDS011;75123;51.788;4.654;2024-01-30T08:16:43;12.98;;;12.98;;
84866;SDS011;75123;51.788;4.654;2024-01-30T08:19:09;12.92;;;12.92;;
84866;SDS011;75123;51.788;4.654;2024-01-30T08:21:34;12.63;;;12.63;;
84866;SDS011;75123;51.788;4.654;2024-01-30T08:24:04;12.57;;;12.57;;
84866;SDS011;75123;51.788;4.654;2024-01-30T08:26:30;13.03;;;13.03;;
84866;SDS011;75123;51.788;4.654;2024-01-30T08:28:56;13.49;;;13.49;;
84866;SDS011;75123;51.788;4.654;2024-01-30T08:31:22;13.09;;;13.09;;
84866;SDS011;75123;51.788;4.654;2024-01-30T08:33:47;13.38;;;13.38;;
84866;SDS011;75123;51.788;4.654;2024-01-30T08:36:13;14.11;;;14.10;;
84866;SDS011;75123;51.788;4.654;2024-01-30T08:38:39;13.90;;;13.90;;
84866;SDS011;75123;51.788;4.654;2024-01-30T08:41:04;14.15;;;14.14;;
84866;SDS011;75123;51.788;4.654;2024-01-30T08:43:30;14.32;;;14.32;;
84866;SDS011;75123;51.788;4.654;2024-01-30T08:45:58;13.80;;;13.80;;
84866;SDS011;75123;51.788;4.654;2024-01-30T08:48:25;13.41;;;13.41;;
84866;SDS011;75123;51.788;4.654;2024-01-30T08:50:50;12.98;;;12.98;;
84866;SDS011;75123;51.788;4.654;2024-01-30T08:53:16;13.33;;;13.33;;
84866;SDS011;75123;51.788;4.654;2024-01-30T08:55:41;13.65;;;13.65;;
84866;SDS011;75123;51.788;4.654;2024-01-30T08:58:07;13.65;;;13.65;;
84866;SDS011;75123;51.788;4.654;2024-01-30T09:00:33;13.48;;;13.48;;
84866;SDS011;75123;51.788;4.654;2024-01-30T09:02:58;13.65;;;13.65;;
84866;SDS011;75123;51.788;4.654;2024-01-30T09:05:24;12.83;;;12.83;;
84866;SDS011;75123;51.788;4.654;2024-01-30T09:07:49;13.38;;;13.38;;
84866;SDS011;75123;51.788;4.654;2024-01-30T09:10:15;13.52;;;13.52;;
84866;SDS011;75123;51.788;4.654;2024-01-30T09:12:40;13.43;;;13.43;;
84866;SDS011;75123;51.788;4.654;2024-01-30T09:15:06;13.14;;;13.14;;
84866;SDS011;75123;51.788;4.654;2024-01-30T09:17:32;13.28;;;13.28;;
84866;SDS011;75123;51.788;4.654;2024-01-30T09:19:58;12.58;;;12.58;;
84866;SDS011;75123;51.788;4.654;2024-01-30T09:22:24;13.12;;;13.12;;
84866;SDS011;75123;51.788;4.654;2024-01-30T09:24:49;12.54;;;12.54;;
84866;SDS011;75123;51.788;4.654;2024-01-30T09:27:15;13.02;;;13.02;;
84866;SDS011;75123;51.788;4.654;2024-01-30T09:29:40;12.75;;;12.75;;
84866;SDS011;75123;51.788;4.654;2024-01-30T09:32:06;12.57;;;12.57;;
84866;SDS011;75123;51.788;4.654;2024-01-30T09:34:32;12.43;;;12.43;;
84866;SDS011;75123;51.788;4.654;2024-01-30T09:36:58;12.47;;;12.47;;
84866;SDS011;75123;51.788;4.654;2024-01-30T09:39:25;12.49;;;12.49;;
84866;SDS011;75123;51.788;4.654;2024-01-30T09:44:35;12.19;;;12.19;;
84866;SDS011;75123;51.788;4.654;2024-01-30T09:47:03;11.97;;;11.97;;
84866;SDS011;75123;51.788;4.654;2024-01-30T09:49:31;12.59;;;12.59;;
84866;SDS011;75123;51.788;4.654;2024-01-30T09:51:57;12.89;;;12.89;;
84866;SDS011;75123;51.788;4.654;2024-01-30T09:54:23;12.56;;;12.56;;
84866;SDS011;75123;51.788;4.654;2024-01-30T09:56:49;12.26;;;12.26;;
84866;SDS011;75123;51.788;4.654;2024-01-30T09:59:14;12.47;;;12.47;;
84866;SDS011;75123;51.788;4.654;2024-01-30T10:01:40;12.18;;;12.18;;
84866;SDS011;75123;51.788;4.654;2024-01-30T10:04:06;12.05;;;12.05;;
84866;SDS011;75123;51.788;4.654;2024-01-30T10:06:32;11.28;;;11.28;;
84866;SDS011;75123;51.788;4.654;2024-01-30T10:08:57;11.12;;;11.12;;
84866;SDS011;75123;51.788;4.654;2024-01-30T10:11:23;10.59;;;10.59;;
84866;SDS011;75123;51.788;4.654;2024-01-30T10:13:48;10.12;;;10.12;;
84866;SDS011;75123;51.788;4.654;2024-01-30T10:16:14;10.19;;;10.19;;
84866;SDS011;75123;51.788;4.654;2024-01-30T10:18:41;9.84;;;9.84;;
84866;SDS011;75123;51.788;4.654;2024-01-30T10:21:08;9.53;;;9.53;;
84866;SDS011;75123;51.788;4.654;2024-01-30T10:23:34;9.63;;;9.63;;
84866;SDS011;75123;51.788;4.654;2024-01-30T10:25:59;9.09;;;9.09;;
84866;SDS011;75123;51.788;4.654;2024-01-30T10:28:27;8.65;;;8.65;;
84866;SDS011;75123;51.788;4.654;2024-01-30T10:30:58;8.13;;;8.13;;
84866;SDS011;75123;51.788;4.654;2024-01-30T10:33:25;8.01;;;8.01;;
84866;SDS011;75123;51.788;4.654;2024-01-30T10:36:14;7.89;;;7.89;;
84866;SDS011;75123;51.788;4.654;2024-01-30T10:38:43;7.11;;;7.11;;
84866;SDS011;75123;51.788;4.654;2024-01-30T10:41:11;7.57;;;7.57;;
84866;SDS011;75123;51.788;4.654;2024-01-30T10:43:42;7.57;;;7.57;;
84866;SDS011;75123;51.788;4.654;2024-01-30T10:46:19;7.77;;;7.77;;
84866;SDS011;75123;51.788;4.654;2024-01-30T10:48:50;5.27;;;5.27;;
84866;SDS011;75123;51.788;4.654;2024-01-30T10:51:24;3.00;;;2.98;;
84866;SDS011;75123;51.788;4.654;2024-01-30T10:53:51;2.09;;;2.05;;
84866;SDS011;75123;51.788;4.654;2024-01-30T10:56:18;1.37;;;1.29;;
84866;SDS011;75123;51.788;4.654;2024-01-30T10:58:46;0.96;;;0.90;;
84866;SDS011;75123;51.788;4.654;2024-01-30T11:01:13;1.10;;;1.00;;
84866;SDS011;75123;51.788;4.654;2024-01-30T11:03:40;1.24;;;1.09;;
84866;SDS011;75123;51.788;4.654;2024-01-30T11:06:10;1.45;;;1.23;;
84866;SDS011;75123;51.788;4.654;2024-01-30T11:08:37;1.53;;;1.26;;
84866;SDS011;75123;51.788;4.654;2024-01-30T11:11:02;1.55;;;1.27;;
84866;SDS011;75123;51.788;4.654;2024-01-30T11:13:34;2.07;;;1.71;;
84866;SDS011;75123;51.788;4.654;2024-01-30T11:16:00;2.48;;;2.12;;
84866;SDS011;75123;51.788;4.654;2024-01-30T11:18:26;2.26;;;1.99;;
84866;SDS011;75123;51.788;4.654;2024-01-30T11:20:55;2.34;;;2.13;;
84866;SDS011;75123;51.788;4.654;2024-01-30T11:23:22;2.31;;;2.17;;
84866;SDS011;75123;51.788;4.654;2024-01-30T11:25:48;2.33;;;2.22;;
84866;SDS011;75123;51.788;4.654;2024-01-30T11:28:14;2.53;;;2.50;;
84866;SDS011;75123;51.788;4.654;2024-01-30T11:30:41;2.63;;;2.63;;
84866;SDS011;75123;51.788;4.654;2024-01-30T11:33:13;3.11;;;3.11;;
84866;SDS011;75123;51.788;4.654;2024-01-30T11:38:08;3.46;;;3.46;;
84866;SDS011;75123;51.788;4.654;2024-01-30T11:40:36;3.46;;;3.46;;
84866;SDS011;75123;51.788;4.654;2024-01-30T11:43:03;3.47;;;3.32;;
84866;SDS011;75123;51.788;4.654;2024-01-30T11:45:30;3.72;;;3.26;;
84866;SDS011;75123;51.788;4.654;2024-01-30T11:47:56;3.59;;;3.02;;
84866;SDS011;75123;51.788;4.654;2024-01-30T11:50:23;4.06;;;3.26;;
84866;SDS011;75123;51.788;4.654;2024-01-30T11:52:48;5.05;;;3.71;;
84866;SDS011;75123;51.788;4.654;2024-01-30T11:55:14;4.59;;;3.34;;
84866;SDS011;75123;51.788;4.654;2024-01-30T11:57:40;5.48;;;3.91;;
84866;SDS011;75123;51.788;4.654;2024-01-30T12:00:13;5.40;;;3.69;;
84866;SDS011;75123;51.788;4.654;2024-01-30T12:02:40;5.38;;;3.62;;
84866;SDS011;75123;51.788;4.654;2024-01-30T12:05:06;5.54;;;3.68;;
84866;SDS011;75123;51.788;4.654;2024-01-30T12:07:35;5.37;;;3.55;;
84866;SDS011;75123;51.788;4.654;2024-01-30T12:10:00;5.46;;;3.57;;
84866;SDS011;75123;51.788;4.654;2024-01-30T12:12:26;4.74;;;3.17;;
84866;SDS011;75123;51.788;4.654;2024-01-30T12:14:53;4.68;;;3.20;;
84866;SDS011;75123;51.788;4.654;2024-01-30T12:17:30;4.25;;;3.00;;
84866;SDS011;75123;51.788;4.654;2024-01-30T12:20:06;4.09;;;2.89;;
84866;SDS011;75123;51.788;4.654;2024-01-30T12:22:42;4.62;;;3.28;;
84866;SDS011;75123;51.788;4.654;2024-01-30T12:25:10;3.87;;;2.83;;
84866;SDS011;75123;51.788;4.654;2024-01-30T12:27:38;3.43;;;2.48;;
84866;SDS011;75123;51.788;4.654;2024-01-30T12:30:05;3.35;;;2.41;;
84866;SDS011;75123;51.788;4.654;2024-01-30T12:32:43;3.22;;;2.25;;
84866;SDS011;75123;51.788;4.654;2024-01-30T12:35:09;3.87;;;2.66;;
84866;SDS011;75123;51.788;4.654;2024-01-30T12:37:39;2.95;;;2.03;;
84866;SDS011;75123;51.788;4.654;2024-01-30T12:40:05;3.10;;;2.19;;
84866;SDS011;75123;51.788;4.654;2024-01-30T12:42:32;3.10;;;2.17;;
84866;SDS011;75123;51.788;4.654;2024-01-30T12:44:58;3.01;;;2.09;;
84866;SDS011;75123;51.788;4.654;2024-01-30T12:47:24;2.71;;;1.87;;
84866;SDS011;75123;51.788;4.654;2024-01-30T12:49:49;2.73;;;1.91;;
84866;SDS011;75123;51.788;4.654;2024-01-30T12:52:18;2.53;;;1.77;;
84866;SDS011;75123;51.788;4.654;2024-01-30T12:54:45;3.01;;;2.12;;
84866;SDS011;75123;51.788;4.654;2024-01-30T12:57:11;2.90;;;2.12;;
84866;SDS011;75123;51.788;4.654;2024-01-30T12:59:36;2.70;;;2.00;;
84866;SDS011;75123;51.788;4.654;2024-01-30T13:02:02;2.37;;;1.79;;
84866;SDS011;75123;51.788;4.654;2024-01-30T13:04:28;2.58;;;2.03;;
84866;SDS011;75123;51.788;4.654;2024-01-30T13:06:54;3.41;;;2.86;;
84866;SDS011;75123;51.788;4.654;2024-01-30T13:09:19;4.23;;;3.90;;
84866;SDS011;75123;51.788;4.654;2024-01-30T13:11:45;4.77;;;4.66;;
84866;SDS011;75123;51.788;4.654;2024-01-30T13:14:11;6.26;;;6.21;;
84866;SDS011;75123;51.788;4.654;2024-01-30T13:16:36;6.35;;;6.33;;
84866;SDS011;75123;51.788;4.654;2024-01-30T13:19:02;5.91;;;5.90;;
84866;SDS011;75123;51.788;4.654;2024-01-30T13:21:27;5.22;;;5.22;;
84866;SDS011;75123;51.788;4.654;2024-01-30T13:23:53;4.26;;;4.24;;
84866;SDS011;75123;51.788;4.654;2024-01-30T13:26:22;4.12;;;4.06;;
84866;SDS011;75123;51.788;4.654;2024-01-30T13:28:48;3.71;;;3.65;;
84866;SDS011;75123;51.788;4.654;2024-01-30T13:31:16;3.86;;;3.75;;
84866;SDS011;75123;51.788;4.654;2024-01-30T13:33:42;3.45;;;3.28;;
84866;SDS011;75123;51.788;4.654;2024-01-30T13:36:08;3.32;;;3.13;;
84866;SDS011;75123;51.788;4.654;2024-01-30T13:38:35;3.77;;;3.53;;
84866;SDS011;75123;51.788;4.654;2024-01-30T13:41:00;3.47;;;3.19;;
84866;SDS011;75123;51.788;4.654;2024-01-30T13:43:26;3.33;;;3.02;;
84866;SDS011;75123;51.788;4.654;2024-01-30T13:45:51;3.33;;;3.01;;
84866;SDS011;75123;51.788;4.654;2024-01-30T13:48:17;3.46;;;3.12;;
84866;SDS011;75123;51.788;4.654;2024-01-30T13:50:43;2.94;;;2.67;;
84866;SDS011;75123;51.788;4.654;2024-01-30T13:53:08;3.24;;;2.91;;
84866;SDS011;75123;51.788;4.654;2024-01-30T13:55:34;3.09;;;2.75;;
84866;SDS011;75123;51.788;4.654;2024-01-30T13:57:59;3.24;;;2.81;;
84866;SDS011;75123;51.788;4.654;2024-01-30T14:00:26;3.45;;;2.95;;
84866;SDS011;75123;51.788;4.654;2024-01-30T14:02:52;3.57;;;2.98;;
84866;SDS011;75123;51.788;4.654;2024-01-30T14:05:20;3.24;;;2.69;;
84866;SDS011;75123;51.788;4.654;2024-01-30T14:07:46;3.19;;;2.71;;
84866;SDS011;75123;51.788;4.654;2024-01-30T14:10:12;3.33;;;2.86;;
84866;SDS011;75123;51.788;4.654;2024-01-30T14:12:38;3.24;;;2.78;;
84866;SDS011;75123;51.788;4.654;2024-01-30T14:15:04;3.75;;;3.21;;
84866;SDS011;75123;51.788;4.654;2024-01-30T14:17:30;3.64;;;3.12;;
84866;SDS011;75123;51.788;4.654;2024-01-30T14:19:55;3.44;;;3.00;;
84866;SDS011;75123;51.788;4.654;2024-01-30T14:22:21;3.72;;;3.21;;
84866;SDS011;75123;51.788;4.654;2024-01-30T14:24:47;3.59;;;3.14;;
84866;SDS011;75123;51.788;4.654;2024-01-30T14:27:12;3.44;;;3.08;;